sensor_id;sensor_type;location;lat;lon;timestamp;P1;durP1;ratioP1;P2;durP2;ratioP2
25627;SDS011;40915;50.826;4.356;2023-10-31T00:00:15;18.38;;;11.38;;
25627;SDS011;40915;50.826;4.356;2023-10-31T00:02:41;22.08;;;11.13;;
25627;SDS011;40915;50.826;4.356;2023-10-31T00:05:06;18.50;;;11.07;;
25627;SDS011;40915;50.826;4.356;2023-10-31T00:07:32;19.13;;;10.90;;
25627;SDS011;40915;50.826;4.356;2023-10-31T00:09:58;15.10;;;9.95;;
25627;SDS011;40915;50.826;4.356;2023-10-31T00:12:23;15.27;;;9.55;;
25627;SDS011;40915;50.826;4.356;2023-10-31T00:14:49;15.27;;;10.10;;
25627;SDS011;40915;50.826;4.356;2023-10-31T00:17:15;15.27;;;10.18;;
25627;SDS011;40915;50.826;4.356;2023-10-31T00:19:40;15.65;;;10.07;;
25627;SDS011;40915;50.826;4.356;2023-10-31T00:22:06;16.40;;;9.20;;
25627;SDS011;40915;50.826;4.356;2023-10-31T00:24:31;13.95;;;9.45;;
25627;SDS011;40915;50.826;4.356;2023-10-31T00:26:57;11.55;;;8.75;;
25627;SDS011;40915;50.826;4.356;2023-10-31T00:29:23;13.15;;;8.30;;
25627;SDS011;40915;50.826;4.356;2023-10-31T00:31:49;14.18;;;8.15;;
25627;SDS011;40915;50.826;4.356;2023-10-31T00:34:14;11.30;;;7.97;;
25627;SDS011;40915;50.826;4.356;2023-10-31T00:36:40;11.30;;;7.60;;
25627;SDS011;40915;50.826;4.356;2023-10-31T00:39:06;12.70;;;7.68;;
25627;SDS011;40915;50.826;4.356;2023-10-31T00:41:31;13.38;;;7.18;;
25627;SDS011;40915;50.826;4.356;2023-10-31T00:43:57;12.43;;;8.60;;
25627;SDS011;40915;50.826;4.356;2023-10-31T00:46:23;10.43;;;6.95;;
25627;SDS011;40915;50.826;4.356;2023-10-31T00:48:48;9.98;;;6.75;;
25627;SDS011;40915;50.826;4.356;2023-10-31T00:51:14;8.15;;;6.35;;
25627;SDS011;40915;50.826;4.356;2023-10-31T00:53:39;8.82;;;6.13;;
25627;SDS011;40915;50.826;4.356;2023-10-31T00:56:05;9.13;;;6.63;;
25627;SDS011;40915;50.826;4.356;2023-10-31T00:58:31;10.07;;;7.00;;
25627;SDS011;40915;50.826;4.356;2023-10-31T01:00:57;9.50;;;6.32;;
25627;SDS011;40915;50.826;4.356;2023-10-31T01:03:23;9.38;;;6.05;;
25627;SDS011;40915;50.826;4.356;2023-10-31T01:05:48;8.13;;;6.28;;
25627;SDS011;40915;50.826;4.356;2023-10-31T01:08:14;9.45;;;6.03;;
25627;SDS011;40915;50.826;4.356;2023-10-31T01:10:40;8.43;;;6.38;;
25627;SDS011;40915;50.826;4.356;2023-10-31T01:13:05;9.30;;;7.00;;
25627;SDS011;40915;50.826;4.356;2023-10-31T01:15:31;9.07;;;6.45;;
25627;SDS011;40915;50.826;4.356;2023-10-31T01:17:57;7.80;;;6.65;;
25627;SDS011;40915;50.826;4.356;2023-10-31T01:20:23;10.88;;;6.75;;
25627;SDS011;40915;50.826;4.356;2023-10-31T01:22:48;10.20;;;6.95;;
25627;SDS011;40915;50.826;4.356;2023-10-31T01:25:14;8.90;;;6.78;;
25627;SDS011;40915;50.826;4.356;2023-10-31T01:27:39;11.27;;;7.00;;
25627;SDS011;40915;50.826;4.356;2023-10-31T01:30:07;8.27;;;6.78;;
25627;SDS011;40915;50.826;4.356;2023-10-31T01:32:33;7.68;;;6.82;;
25627;SDS011;40915;50.826;4.356;2023-10-31T01:34:58;8.45;;;6.43;;
25627;SDS011;40915;50.826;4.356;2023-10-31T01:37:24;10.15;;;6.70;;
25627;SDS011;40915;50.826;4.356;2023-10-31T01:39:49;12.18;;;6.75;;
25627;SDS011;40915;50.826;4.356;2023-10-31T01:42:15;9.73;;;6.97;;
25627;SDS011;40915;50.826;4.356;2023-10-31T01:44:41;10.32;;;6.90;;
25627;SDS011;40915;50.826;4.356;2023-10-31T01:47:07;6.60;;;5.90;;
25627;SDS011;40915;50.826;4.356;2023-10-31T01:49:32;8.00;;;6.10;;
25627;SDS011;40915;50.826;4.356;2023-10-31T01:51:59;8.00;;;6.35;;
25627;SDS011;40915;50.826;4.356;2023-10-31T01:54:26;8.10;;;6.03;;
25627;SDS011;40915;50.826;4.356;2023-10-31T01:56:51;9.15;;;6.55;;
25627;SDS011;40915;50.826;4.356;2023-10-31T01:59:22;7.57;;;6.47;;
25627;SDS011;40915;50.826;4.356;2023-10-31T02:01:49;7.43;;;6.57;;
25627;SDS011;40915;50.826;4.356;2023-10-31T02:04:15;8.20;;;6.43;;
25627;SDS011;40915;50.826;4.356;2023-10-31T02:06:40;6.55;;;5.85;;
25627;SDS011;40915;50.826;4.356;2023-10-31T02:09:06;8.80;;;6.20;;
25627;SDS011;40915;50.826;4.356;2023-10-31T02:11:32;8.60;;;6.20;;
25627;SDS011;40915;50.826;4.356;2023-10-31T02:13:57;7.82;;;6.07;;
25627;SDS011;40915;50.826;4.356;2023-10-31T02:16:23;7.75;;;6.30;;
25627;SDS011;40915;50.826;4.356;2023-10-31T02:18:49;8.02;;;5.78;;
25627;SDS011;40915;50.826;4.356;2023-10-31T02:21:15;7.95;;;6.10;;
25627;SDS011;40915;50.826;4.356;2023-10-31T02:23:43;6.90;;;6.13;;
25627;SDS011;40915;50.826;4.356;2023-10-31T02:26:30;6.93;;;6.13;;
25627;SDS011;40915;50.826;4.356;2023-10-31T02:28:56;8.50;;;5.80;;
25627;SDS011;40915;50.826;4.356;2023-10-31T02:31:22;9.23;;;5.75;;
25627;SDS011;40915;50.826;4.356;2023-10-31T02:33:47;6.72;;;5.88;;
25627;SDS011;40915;50.826;4.356;2023-10-31T02:36:13;6.85;;;6.00;;
25627;SDS011;40915;50.826;4.356;2023-10-31T02:38:39;8.48;;;6.05;;
25627;SDS011;40915;50.826;4.356;2023-10-31T02:41:04;6.53;;;5.88;;
25627;SDS011;40915;50.826;4.356;2023-10-31T02:43:30;8.60;;;6.50;;
25627;SDS011;40915;50.826;4.356;2023-10-31T02:45:56;6.68;;;5.82;;
25627;SDS011;40915;50.826;4.356;2023-10-31T02:48:22;6.88;;;5.55;;
25627;SDS011;40915;50.826;4.356;2023-10-31T02:50:48;6.68;;;5.93;;
25627;SDS011;40915;50.826;4.356;2023-10-31T02:53:14;6.60;;;5.78;;
25627;SDS011;40915;50.826;4.356;2023-10-31T02:55:39;6.70;;;5.55;;
25627;SDS011;40915;50.826;4.356;2023-10-31T02:58:05;8.40;;;5.50;;
25627;SDS011;40915;50.826;4.356;2023-10-31T03:00:31;8.75;;;5.55;;
25627;SDS011;40915;50.826;4.356;2023-10-31T03:02:56;6.63;;;5.25;;
25627;SDS011;40915;50.826;4.356;2023-10-31T03:05:22;5.85;;;5.05;;
25627;SDS011;40915;50.826;4.356;2023-10-31T03:07:47;6.67;;;5.30;;
25627;SDS011;40915;50.826;4.356;2023-10-31T03:10:13;7.30;;;5.60;;
25627;SDS011;40915;50.826;4.356;2023-10-31T03:12:39;8.02;;;6.65;;
25627;SDS011;40915;50.826;4.356;2023-10-31T03:15:04;10.48;;;7.68;;
25627;SDS011;40915;50.826;4.356;2023-10-31T03:17:30;8.95;;;7.47;;
25627;SDS011;40915;50.826;4.356;2023-10-31T03:19:56;10.83;;;8.07;;
25627;SDS011;40915;50.826;4.356;2023-10-31T03:22:21;11.05;;;8.10;;
25627;SDS011;40915;50.826;4.356;2023-10-31T03:24:47;9.52;;;8.02;;
25627;SDS011;40915;50.826;4.356;2023-10-31T03:27:12;10.07;;;7.97;;
25627;SDS011;40915;50.826;4.356;2023-10-31T03:29:38;11.88;;;8.95;;
25627;SDS011;40915;50.826;4.356;2023-10-31T03:32:04;11.75;;;8.85;;
25627;SDS011;40915;50.826;4.356;2023-10-31T03:34:30;9.43;;;8.20;;
25627;SDS011;40915;50.826;4.356;2023-10-31T03:36:55;10.77;;;9.02;;
25627;SDS011;40915;50.826;4.356;2023-10-31T03:39:21;10.93;;;8.40;;
25627;SDS011;40915;50.826;4.356;2023-10-31T03:41:47;12.43;;;9.05;;
25627;SDS011;40915;50.826;4.356;2023-10-31T03:44:12;11.25;;;8.77;;
25627;SDS011;40915;50.826;4.356;2023-10-31T03:46:38;11.13;;;8.88;;
25627;SDS011;40915;50.826;4.356;2023-10-31T03:49:04;9.23;;;8.00;;
25627;SDS011;40915;50.826;4.356;2023-10-31T03:51:32;9.77;;;8.30;;
25627;SDS011;40915;50.826;4.356;2023-10-31T03:53:58;11.10;;;8.57;;
25627;SDS011;40915;50.826;4.356;2023-10-31T03:56:24;9.40;;;8.38;;
25627;SDS011;40915;50.826;4.356;2023-10-31T03:58:49;12.30;;;8.65;;
25627;SDS011;40915;50.826;4.356;2023-10-31T04:01:15;12.63;;;9.73;;
25627;SDS011;40915;50.826;4.356;2023-10-31T04:03:41;11.27;;;9.35;;
25627;SDS011;40915;50.826;4.356;2023-10-31T04:06:07;11.85;;;8.88;;
25627;SDS011;40915;50.826;4.356;2023-10-31T04:08:33;11.05;;;8.95;;
25627;SDS011;40915;50.826;4.356;2023-10-31T04:10:59;11.07;;;9.23;;
25627;SDS011;40915;50.826;4.356;2023-10-31T04:13:24;14.23;;;10.00;;
25627;SDS011;40915;50.826;4.356;2023-10-31T04:15:50;12.98;;;10.02;;
25627;SDS011;40915;50.826;4.356;2023-10-31T04:18:15;11.73;;;9.97;;
25627;SDS011;40915;50.826;4.356;2023-10-31T04:20:41;11.80;;;9.68;;
25627;SDS011;40915;50.826;4.356;2023-10-31T04:23:07;12.73;;;9.68;;
25627;SDS011;40915;50.826;4.356;2023-10-31T04:25:33;12.43;;;9.45;;
25627;SDS011;40915;50.826;4.356;2023-10-31T04:27:59;12.20;;;10.15;;
25627;SDS011;40915;50.826;4.356;2023-10-31T04:30:25;13.23;;;10.00;;
25627;SDS011;40915;50.826;4.356;2023-10-31T04:32:51;10.68;;;9.38;;
25627;SDS011;40915;50.826;4.356;2023-10-31T04:35:17;12.50;;;9.55;;
25627;SDS011;40915;50.826;4.356;2023-10-31T04:37:42;13.35;;;10.32;;
25627;SDS011;40915;50.826;4.356;2023-10-31T04:40:08;17.50;;;10.98;;
25627;SDS011;40915;50.826;4.356;2023-10-31T04:42:35;15.57;;;10.70;;
25627;SDS011;40915;50.826;4.356;2023-10-31T04:45:01;15.65;;;11.52;;
25627;SDS011;40915;50.826;4.356;2023-10-31T04:47:26;14.65;;;11.80;;
25627;SDS011;40915;50.826;4.356;2023-10-31T04:49:52;15.43;;;10.98;;
25627;SDS011;40915;50.826;4.356;2023-10-31T04:52:17;15.15;;;10.98;;
25627;SDS011;40915;50.826;4.356;2023-10-31T04:54:44;14.32;;;11.45;;
25627;SDS011;40915;50.826;4.356;2023-10-31T04:57:10;14.65;;;12.07;;
25627;SDS011;40915;50.826;4.356;2023-10-31T04:59:36;14.95;;;11.60;;
25627;SDS011;40915;50.826;4.356;2023-10-31T05:02:02;15.95;;;11.32;;
25627;SDS011;40915;50.826;4.356;2023-10-31T05:04:28;16.90;;;12.23;;
25627;SDS011;40915;50.826;4.356;2023-10-31T05:06:54;15.88;;;11.88;;
25627;SDS011;40915;50.826;4.356;2023-10-31T05:09:19;18.20;;;11.63;;
25627;SDS011;40915;50.826;4.356;2023-10-31T05:11:45;16.47;;;11.67;;
25627;SDS011;40915;50.826;4.356;2023-10-31T05:14:10;17.92;;;12.10;;
25627;SDS011;40915;50.826;4.356;2023-10-31T05:16:40;12.93;;;10.95;;
25627;SDS011;40915;50.826;4.356;2023-10-31T05:19:09;12.02;;;10.43;;
25627;SDS011;40915;50.826;4.356;2023-10-31T05:21:35;14.77;;;10.80;;
25627;SDS011;40915;50.826;4.356;2023-10-31T05:24:01;12.85;;;11.18;;
25627;SDS011;40915;50.826;4.356;2023-10-31T05:26:27;12.80;;;10.32;;
25627;SDS011;40915;50.826;4.356;2023-10-31T05:28:54;13.13;;;10.90;;
25627;SDS011;40915;50.826;4.356;2023-10-31T05:31:20;13.13;;;11.02;;
25627;SDS011;40915;50.826;4.356;2023-10-31T05:33:46;14.25;;;11.15;;
25627;SDS011;40915;50.826;4.356;2023-10-31T05:36:18;13.95;;;10.38;;
25627;SDS011;40915;50.826;4.356;2023-10-31T05:38:45;13.43;;;11.05;;
25627;SDS011;40915;50.826;4.356;2023-10-31T05:41:10;16.80;;;12.40;;
25627;SDS011;40915;50.826;4.356;2023-10-31T05:43:36;14.68;;;11.70;;
25627;SDS011;40915;50.826;4.356;2023-10-31T05:46:01;16.63;;;12.37;;
25627;SDS011;40915;50.826;4.356;2023-10-31T05:48:27;14.70;;;11.73;;
25627;SDS011;40915;50.826;4.356;2023-10-31T05:50:53;15.03;;;11.40;;
25627;SDS011;40915;50.826;4.356;2023-10-31T05:53:18;14.27;;;11.33;;
25627;SDS011;40915;50.826;4.356;2023-10-31T05:55:44;14.17;;;10.97;;
25627;SDS011;40915;50.826;4.356;2023-10-31T05:58:10;16.00;;;11.30;;
25627;SDS011;40915;50.826;4.356;2023-10-31T06:00:37;12.95;;;10.40;;
25627;SDS011;40915;50.826;4.356;2023-10-31T06:03:03;13.52;;;10.43;;
25627;SDS011;40915;50.826;4.356;2023-10-31T06:05:28;11.45;;;9.93;;
25627;SDS011;40915;50.826;4.356;2023-10-31T06:07:54;16.70;;;10.45;;
25627;SDS011;40915;50.826;4.356;2023-10-31T06:10:20;13.63;;;10.55;;
25627;SDS011;40915;50.826;4.356;2023-10-31T06:12:46;11.45;;;9.38;;
25627;SDS011;40915;50.826;4.356;2023-10-31T06:15:12;10.30;;;9.20;;
25627;SDS011;40915;50.826;4.356;2023-10-31T06:17:37;13.45;;;9.77;;
25627;SDS011;40915;50.826;4.356;2023-10-31T06:20:03;11.85;;;9.10;;
25627;SDS011;40915;50.826;4.356;2023-10-31T06:22:29;11.85;;;9.48;;
25627;SDS011;40915;50.826;4.356;2023-10-31T06:24:54;14.75;;;9.15;;
25627;SDS011;40915;50.826;4.356;2023-10-31T06:27:22;11.93;;;9.75;;
25627;SDS011;40915;50.826;4.356;2023-10-31T06:29:48;13.57;;;8.65;;
25627;SDS011;40915;50.826;4.356;2023-10-31T06:32:13;12.27;;;8.90;;
25627;SDS011;40915;50.826;4.356;2023-10-31T06:34:39;12.15;;;8.73;;
25627;SDS011;40915;50.826;4.356;2023-10-31T06:37:05;12.10;;;8.38;;
25627;SDS011;40915;50.826;4.356;2023-10-31T06:39:30;10.88;;;7.93;;
25627;SDS011;40915;50.826;4.356;2023-10-31T06:41:57;10.82;;;8.68;;
25627;SDS011;40915;50.826;4.356;2023-10-31T06:44:23;11.83;;;8.33;;
25627;SDS011;40915;50.826;4.356;2023-10-31T06:46:48;11.32;;;8.38;;
25627;SDS011;40915;50.826;4.356;2023-10-31T06:49:14;9.50;;;7.82;;
25627;SDS011;40915;50.826;4.356;2023-10-31T06:51:40;11.27;;;7.93;;
25627;SDS011;40915;50.826;4.356;2023-10-31T06:54:06;9.43;;;7.50;;
25627;SDS011;40915;50.826;4.356;2023-10-31T06:56:32;9.63;;;8.50;;
25627;SDS011;40915;50.826;4.356;2023-10-31T06:58:57;9.40;;;7.43;;
25627;SDS011;40915;50.826;4.356;2023-10-31T07:01:23;10.17;;;8.13;;
25627;SDS011;40915;50.826;4.356;2023-10-31T07:03:49;9.73;;;7.63;;
25627;SDS011;40915;50.826;4.356;2023-10-31T07:06:15;10.10;;;8.60;;
25627;SDS011;40915;50.826;4.356;2023-10-31T07:08:40;9.00;;;7.85;;
25627;SDS011;40915;50.826;4.356;2023-10-31T07:11:06;10.32;;;7.50;;
25627;SDS011;40915;50.826;4.356;2023-10-31T07:13:31;9.93;;;7.28;;
25627;SDS011;40915;50.826;4.356;2023-10-31T07:15:57;10.32;;;7.35;;
25627;SDS011;40915;50.826;4.356;2023-10-31T07:18:23;9.10;;;7.68;;
25627;SDS011;40915;50.826;4.356;2023-10-31T07:20:48;8.55;;;7.15;;
25627;SDS011;40915;50.826;4.356;2023-10-31T07:23:14;8.35;;;7.38;;
25627;SDS011;40915;50.826;4.356;2023-10-31T07:25:39;9.48;;;7.55;;
25627;SDS011;40915;50.826;4.356;2023-10-31T07:28:05;10.45;;;7.18;;
25627;SDS011;40915;50.826;4.356;2023-10-31T07:30:31;10.40;;;6.80;;
25627;SDS011;40915;50.826;4.356;2023-10-31T07:32:56;11.88;;;7.07;;
25627;SDS011;40915;50.826;4.356;2023-10-31T07:35:22;9.63;;;7.30;;
25627;SDS011;40915;50.826;4.356;2023-10-31T07:37:48;10.45;;;7.30;;
25627;SDS011;40915;50.826;4.356;2023-10-31T07:40:13;9.73;;;6.25;;
25627;SDS011;40915;50.826;4.356;2023-10-31T07:42:39;10.95;;;6.75;;
25627;SDS011;40915;50.826;4.356;2023-10-31T07:45:05;7.70;;;6.43;;
25627;SDS011;40915;50.826;4.356;2023-10-31T07:47:31;9.63;;;7.07;;
25627;SDS011;40915;50.826;4.356;2023-10-31T07:49:56;7.82;;;6.10;;
25627;SDS011;40915;50.826;4.356;2023-10-31T07:52:22;7.15;;;6.15;;
25627;SDS011;40915;50.826;4.356;2023-10-31T07:54:48;10.23;;;6.00;;
25627;SDS011;40915;50.826;4.356;2023-10-31T07:57:13;7.22;;;5.63;;
25627;SDS011;40915;50.826;4.356;2023-10-31T07:59:39;11.10;;;6.03;;
25627;SDS011;40915;50.826;4.356;2023-10-31T08:02:04;10.73;;;5.63;;
25627;SDS011;40915;50.826;4.356;2023-10-31T08:04:30;7.10;;;5.13;;
25627;SDS011;40915;50.826;4.356;2023-10-31T08:06:56;9.13;;;5.20;;
25627;SDS011;40915;50.826;4.356;2023-10-31T08:09:22;7.05;;;4.97;;
25627;SDS011;40915;50.826;4.356;2023-10-31T08:11:47;6.40;;;4.93;;
25627;SDS011;40915;50.826;4.356;2023-10-31T08:14:13;6.83;;;4.77;;
25627;SDS011;40915;50.826;4.356;2023-10-31T08:16:40;7.30;;;4.38;;
25627;SDS011;40915;50.826;4.356;2023-10-31T08:19:06;9.40;;;4.72;;
25627;SDS011;40915;50.826;4.356;2023-10-31T08:21:32;11.20;;;4.88;;
25627;SDS011;40915;50.826;4.356;2023-10-31T08:24:03;7.30;;;4.68;;
25627;SDS011;40915;50.826;4.356;2023-10-31T08:26:29;10.05;;;4.47;;
25627;SDS011;40915;50.826;4.356;2023-10-31T08:28:56;6.85;;;4.22;;
25627;SDS011;40915;50.826;4.356;2023-10-31T08:31:21;6.45;;;4.00;;
25627;SDS011;40915;50.826;4.356;2023-10-31T08:33:47;6.70;;;3.80;;
25627;SDS011;40915;50.826;4.356;2023-10-31T08:36:12;8.00;;;3.92;;
25627;SDS011;40915;50.826;4.356;2023-10-31T08:38:38;10.75;;;4.75;;
25627;SDS011;40915;50.826;4.356;2023-10-31T08:41:04;8.15;;;4.65;;
25627;SDS011;40915;50.826;4.356;2023-10-31T08:43:30;6.30;;;3.97;;
25627;SDS011;40915;50.826;4.356;2023-10-31T08:45:55;10.68;;;4.80;;
25627;SDS011;40915;50.826;4.356;2023-10-31T08:48:21;8.40;;;4.20;;
25627;SDS011;40915;50.826;4.356;2023-10-31T08:50:47;7.40;;;4.00;;
25627;SDS011;40915;50.826;4.356;2023-10-31T08:53:13;6.43;;;4.00;;
25627;SDS011;40915;50.826;4.356;2023-10-31T08:55:38;11.23;;;5.28;;
25627;SDS011;40915;50.826;4.356;2023-10-31T08:58:04;8.95;;;4.88;;
25627;SDS011;40915;50.826;4.356;2023-10-31T09:00:29;8.15;;;4.63;;
25627;SDS011;40915;50.826;4.356;2023-10-31T09:02:55;8.77;;;3.72;;
25627;SDS011;40915;50.826;4.356;2023-10-31T09:05:20;9.60;;;4.20;;
25627;SDS011;40915;50.826;4.356;2023-10-31T09:07:46;7.88;;;4.20;;
25627;SDS011;40915;50.826;4.356;2023-10-31T09:10:12;10.77;;;4.38;;
25627;SDS011;40915;50.826;4.356;2023-10-31T09:12:38;6.88;;;3.83;;
25627;SDS011;40915;50.826;4.356;2023-10-31T09:15:04;6.75;;;3.25;;
25627;SDS011;40915;50.826;4.356;2023-10-31T09:17:30;10.27;;;3.40;;
25627;SDS011;40915;50.826;4.356;2023-10-31T09:19:56;7.45;;;3.40;;
25627;SDS011;40915;50.826;4.356;2023-10-31T09:22:21;8.00;;;3.40;;
25627;SDS011;40915;50.826;4.356;2023-10-31T09:24:47;9.70;;;3.75;;
25627;SDS011;40915;50.826;4.356;2023-10-31T09:27:12;9.10;;;3.80;;
25627;SDS011;40915;50.826;4.356;2023-10-31T09:29:38;7.85;;;3.90;;
25627;SDS011;40915;50.826;4.356;2023-10-31T09:32:04;12.40;;;3.60;;
25627;SDS011;40915;50.826;4.356;2023-10-31T09:34:31;10.57;;;3.50;;
25627;SDS011;40915;50.826;4.356;2023-10-31T09:36:57;7.38;;;3.95;;
25627;SDS011;40915;50.826;4.356;2023-10-31T09:39:23;7.20;;;3.85;;
25627;SDS011;40915;50.826;4.356;2023-10-31T09:41:49;6.72;;;3.78;;
25627;SDS011;40915;50.826;4.356;2023-10-31T09:44:14;9.77;;;5.18;;
25627;SDS011;40915;50.826;4.356;2023-10-31T09:46:40;7.63;;;4.70;;
25627;SDS011;40915;50.826;4.356;2023-10-31T09:49:06;7.32;;;3.85;;
25627;SDS011;40915;50.826;4.356;2023-10-31T09:51:33;12.75;;;4.50;;
25627;SDS011;40915;50.826;4.356;2023-10-31T09:53:59;7.15;;;4.20;;
25627;SDS011;40915;50.826;4.356;2023-10-31T09:56:28;9.30;;;3.78;;
25627;SDS011;40915;50.826;4.356;2023-10-31T09:58:59;7.15;;;3.97;;
25627;SDS011;40915;50.826;4.356;2023-10-31T10:01:25;7.82;;;3.75;;
25627;SDS011;40915;50.826;4.356;2023-10-31T10:03:51;11.10;;;4.30;;
25627;SDS011;40915;50.826;4.356;2023-10-31T10:06:17;8.65;;;3.58;;
25627;SDS011;40915;50.826;4.356;2023-10-31T10:08:46;9.27;;;3.65;;
25627;SDS011;40915;50.826;4.356;2023-10-31T10:11:11;9.93;;;3.90;;
25627;SDS011;40915;50.826;4.356;2023-10-31T10:13:37;8.75;;;3.67;;
25627;SDS011;40915;50.826;4.356;2023-10-31T10:16:03;9.63;;;3.85;;
25627;SDS011;40915;50.826;4.356;2023-10-31T10:18:33;5.47;;;3.97;;
25627;SDS011;40915;50.826;4.356;2023-10-31T10:21:04;8.90;;;3.10;;
25627;SDS011;40915;50.826;4.356;2023-10-31T10:23:31;7.30;;;3.88;;
25627;SDS011;40915;50.826;4.356;2023-10-31T10:25:58;8.98;;;3.42;;
25627;SDS011;40915;50.826;4.356;2023-10-31T10:28:25;10.70;;;3.65;;
25627;SDS011;40915;50.826;4.356;2023-10-31T10:30:52;8.52;;;3.40;;
25627;SDS011;40915;50.826;4.356;2023-10-31T10:33:18;9.30;;;3.70;;
25627;SDS011;40915;50.826;4.356;2023-10-31T10:35:45;9.30;;;3.70;;
25627;SDS011;40915;50.826;4.356;2023-10-31T10:38:11;6.78;;;3.60;;
25627;SDS011;40915;50.826;4.356;2023-10-31T10:40:47;15.75;;;4.43;;
25627;SDS011;40915;50.826;4.356;2023-10-31T10:43:24;7.95;;;3.78;;
25627;SDS011;40915;50.826;4.356;2023-10-31T10:45:54;7.47;;;3.58;;
25627;SDS011;40915;50.826;4.356;2023-10-31T10:48:26;5.95;;;2.95;;
25627;SDS011;40915;50.826;4.356;2023-10-31T10:51:06;7.68;;;3.90;;
25627;SDS011;40915;50.826;4.356;2023-10-31T10:53:55;8.45;;;4.18;;
25627;SDS011;40915;50.826;4.356;2023-10-31T10:56:28;14.48;;;4.18;;
25627;SDS011;40915;50.826;4.356;2023-10-31T10:59:18;7.00;;;4.20;;
25627;SDS011;40915;50.826;4.356;2023-10-31T11:01:46;9.48;;;4.18;;
25627;SDS011;40915;50.826;4.356;2023-10-31T11:04:15;15.07;;;5.32;;
25627;SDS011;40915;50.826;4.356;2023-10-31T11:06:42;12.88;;;6.43;;
25627;SDS011;40915;50.826;4.356;2023-10-31T11:09:08;13.88;;;6.80;;
25627;SDS011;40915;50.826;4.356;2023-10-31T11:11:36;14.38;;;8.07;;
25627;SDS011;40915;50.826;4.356;2023-10-31T11:14:03;18.27;;;8.88;;
25627;SDS011;40915;50.826;4.356;2023-10-31T11:16:30;17.58;;;9.07;;
25627;SDS011;40915;50.826;4.356;2023-10-31T11:19:09;19.67;;;11.63;;
25627;SDS011;40915;50.826;4.356;2023-10-31T11:21:36;19.70;;;10.70;;
25627;SDS011;40915;50.826;4.356;2023-10-31T11:24:02;20.00;;;11.10;;
25627;SDS011;40915;50.826;4.356;2023-10-31T11:26:31;16.58;;;11.20;;
25627;SDS011;40915;50.826;4.356;2023-10-31T11:29:06;18.90;;;12.40;;
25627;SDS011;40915;50.826;4.356;2023-10-31T11:31:33;21.10;;;12.73;;
25627;SDS011;40915;50.826;4.356;2023-10-31T11:34:02;18.85;;;12.27;;
25627;SDS011;40915;50.826;4.356;2023-10-31T11:36:31;17.88;;;11.75;;
25627;SDS011;40915;50.826;4.356;2023-10-31T11:41:38;20.38;;;11.77;;
25627;SDS011;40915;50.826;4.356;2023-10-31T11:44:04;19.63;;;11.85;;
25627;SDS011;40915;50.826;4.356;2023-10-31T11:46:30;17.08;;;9.82;;
25627;SDS011;40915;50.826;4.356;2023-10-31T11:48:56;18.02;;;10.50;;
25627;SDS011;40915;50.826;4.356;2023-10-31T11:51:22;16.15;;;9.30;;
25627;SDS011;40915;50.826;4.356;2023-10-31T11:53:48;17.80;;;9.60;;
25627;SDS011;40915;50.826;4.356;2023-10-31T11:56:14;13.90;;;9.00;;
25627;SDS011;40915;50.826;4.356;2023-10-31T11:58:40;14.57;;;9.35;;
25627;SDS011;40915;50.826;4.356;2023-10-31T12:01:09;11.80;;;7.50;;
25627;SDS011;40915;50.826;4.356;2023-10-31T12:03:39;10.65;;;7.32;;
25627;SDS011;40915;50.826;4.356;2023-10-31T12:06:06;9.82;;;6.82;;
25627;SDS011;40915;50.826;4.356;2023-10-31T12:08:33;11.68;;;7.25;;
25627;SDS011;40915;50.826;4.356;2023-10-31T12:13:36;12.88;;;7.20;;
25627;SDS011;40915;50.826;4.356;2023-10-31T12:16:03;11.75;;;8.07;;
25627;SDS011;40915;50.826;4.356;2023-10-31T12:18:30;13.20;;;7.68;;
25627;SDS011;40915;50.826;4.356;2023-10-31T12:20:56;11.90;;;6.32;;
25627;SDS011;40915;50.826;4.356;2023-10-31T12:23:22;9.77;;;6.25;;
25627;SDS011;40915;50.826;4.356;2023-10-31T12:25:51;12.65;;;7.07;;
25627;SDS011;40915;50.826;4.356;2023-10-31T12:28:23;10.63;;;6.47;;
25627;SDS011;40915;50.826;4.356;2023-10-31T12:30:50;11.40;;;6.68;;
25627;SDS011;40915;50.826;4.356;2023-10-31T12:33:19;10.05;;;6.57;;
25627;SDS011;40915;50.826;4.356;2023-10-31T12:35:47;11.75;;;6.60;;
25627;SDS011;40915;50.826;4.356;2023-10-31T12:38:14;11.00;;;5.63;;
25627;SDS011;40915;50.826;4.356;2023-10-31T12:40:41;9.20;;;5.90;;
25627;SDS011;40915;50.826;4.356;2023-10-31T12:43:08;11.60;;;5.38;;
25627;SDS011;40915;50.826;4.356;2023-10-31T12:45:34;6.72;;;5.40;;
25627;SDS011;40915;50.826;4.356;2023-10-31T12:48:01;6.63;;;4.85;;
25627;SDS011;40915;50.826;4.356;2023-10-31T12:50:32;7.78;;;4.78;;
25627;SDS011;40915;50.826;4.356;2023-10-31T12:52:59;6.35;;;3.97;;
25627;SDS011;40915;50.826;4.356;2023-10-31T12:55:26;5.55;;;4.00;;
25627;SDS011;40915;50.826;4.356;2023-10-31T12:57:53;6.20;;;3.90;;
25627;SDS011;40915;50.826;4.356;2023-10-31T13:00:19;5.25;;;3.72;;
25627;SDS011;40915;50.826;4.356;2023-10-31T13:02:50;5.53;;;3.65;;
25627;SDS011;40915;50.826;4.356;2023-10-31T13:05:33;6.80;;;3.35;;
25627;SDS011;40915;50.826;4.356;2023-10-31T13:07:59;4.68;;;3.30;;
25627;SDS011;40915;50.826;4.356;2023-10-31T13:10:26;5.43;;;3.33;;
25627;SDS011;40915;50.826;4.356;2023-10-31T13:12:53;5.75;;;3.45;;
25627;SDS011;40915;50.826;4.356;2023-10-31T13:15:20;8.48;;;3.70;;
25627;SDS011;40915;50.826;4.356;2023-10-31T13:17:47;5.63;;;3.78;;
25627;SDS011;40915;50.826;4.356;2023-10-31T13:20:14;7.38;;;4.28;;
25627;SDS011;40915;50.826;4.356;2023-10-31T13:22:41;5.50;;;3.90;;
25627;SDS011;40915;50.826;4.356;2023-10-31T13:25:11;5.00;;;3.83;;
25627;SDS011;40915;50.826;4.356;2023-10-31T13:27:38;6.43;;;4.82;;
25627;SDS011;40915;50.826;4.356;2023-10-31T13:30:06;7.63;;;5.80;;
25627;SDS011;40915;50.826;4.356;2023-10-31T13:32:42;9.02;;;6.43;;
25627;SDS011;40915;50.826;4.356;2023-10-31T13:35:08;9.25;;;6.35;;
25627;SDS011;40915;50.826;4.356;2023-10-31T13:37:35;11.82;;;6.82;;
25627;SDS011;40915;50.826;4.356;2023-10-31T13:40:02;14.38;;;6.53;;
25627;SDS011;40915;50.826;4.356;2023-10-31T13:42:29;9.77;;;6.80;;
25627;SDS011;40915;50.826;4.356;2023-10-31T13:44:55;8.68;;;6.35;;
25627;SDS011;40915;50.826;4.356;2023-10-31T13:47:21;8.57;;;5.57;;
25627;SDS011;40915;50.826;4.356;2023-10-31T13:49:47;7.68;;;5.57;;
25627;SDS011;40915;50.826;4.356;2023-10-31T13:52:13;10.80;;;6.07;;
25627;SDS011;40915;50.826;4.356;2023-10-31T13:54:39;8.80;;;5.50;;
25627;SDS011;40915;50.826;4.356;2023-10-31T13:57:04;8.63;;;5.53;;
25627;SDS011;40915;50.826;4.356;2023-10-31T13:59:30;8.85;;;4.95;;
25627;SDS011;40915;50.826;4.356;2023-10-31T14:01:56;7.32;;;5.43;;
25627;SDS011;40915;50.826;4.356;2023-10-31T14:04:22;8.98;;;4.53;;
25627;SDS011;40915;50.826;4.356;2023-10-31T14:06:48;9.85;;;4.60;;
25627;SDS011;40915;50.826;4.356;2023-10-31T14:09:14;9.02;;;5.15;;
25627;SDS011;40915;50.826;4.356;2023-10-31T14:11:40;8.57;;;4.60;;
25627;SDS011;40915;50.826;4.356;2023-10-31T14:14:06;12.07;;;4.88;;
25627;SDS011;40915;50.826;4.356;2023-10-31T14:16:34;7.57;;;4.00;;
25627;SDS011;40915;50.826;4.356;2023-10-31T14:19:00;6.35;;;4.43;;
25627;SDS011;40915;50.826;4.356;2023-10-31T14:21:27;7.30;;;3.85;;
25627;SDS011;40915;50.826;4.356;2023-10-31T14:23:53;6.15;;;3.72;;
25627;SDS011;40915;50.826;4.356;2023-10-31T14:26:22;6.82;;;3.97;;
25627;SDS011;40915;50.826;4.356;2023-10-31T14:28:48;5.65;;;3.50;;
25627;SDS011;40915;50.826;4.356;2023-10-31T14:31:15;5.90;;;3.55;;
25627;SDS011;40915;50.826;4.356;2023-10-31T14:33:41;7.38;;;4.03;;
25627;SDS011;40915;50.826;4.356;2023-10-31T14:36:08;8.80;;;3.90;;
25627;SDS011;40915;50.826;4.356;2023-10-31T14:38:36;6.90;;;3.40;;